createdAt,value
2024-01-28T00:00:58.314Z,13.60
2024-01-28T00:03:44.674Z,14.00
2024-01-28T00:06:31.249Z,12.70
2024-01-28T00:09:17.550Z,13.10
2024-01-28T00:12:04.138Z,13.70
2024-01-28T00:14:50.414Z,13.70
2024-01-28T00:17:36.349Z,14.20
2024-01-28T00:20:23.341Z,14.00
2024-01-28T00:23:09.541Z,15.10
2024-01-28T00:25:55.834Z,14.30
2024-01-28T00:28:41.848Z,13.70
2024-01-28T00:31:27.697Z,14.30
2024-01-28T00:34:14.368Z,13.40
2024-01-28T00:37:03.626Z,14.60
2024-01-28T00:39:49.760Z,15.20
2024-01-28T00:42:36.605Z,14.40
2024-01-28T00:45:23.090Z,14.70
2024-01-28T00:48:09.151Z,13.90
2024-01-28T00:50:55.330Z,15.10
2024-01-28T00:53:41.564Z,14.80
2024-01-28T00:56:27.816Z,11.90
2024-01-28T00:59:14.237Z,14.00
2024-01-28T01:02:00.333Z,14.30
2024-01-28T01:04:46.068Z,14.60
2024-01-28T01:07:31.973Z,14.50
2024-01-28T01:10:17.904Z,13.60
2024-01-28T01:13:03.823Z,14.60
2024-01-28T01:15:49.760Z,14.30
2024-01-28T01:18:35.594Z,14.80
2024-01-28T01:21:22.204Z,14.60
2024-01-28T01:24:08.525Z,15.60
2024-01-28T01:26:54.849Z,14.90
2024-01-28T01:29:41.138Z,15.90
2024-01-28T01:32:27.466Z,14.60
2024-01-28T01:35:15.354Z,14.90
2024-01-28T01:38:01.669Z,16.00
2024-01-28T01:40:48.195Z,15.30
2024-01-28T01:43:34.382Z,15.00
2024-01-28T01:46:22.644Z,16.20
2024-01-28T01:49:09.716Z,15.60
2024-01-28T01:51:56.365Z,15.50
2024-01-28T01:54:44.663Z,16.40
2024-01-28T01:57:31.841Z,16.90
2024-01-28T02:00:18.180Z,17.10
2024-01-28T02:03:05.069Z,15.70
2024-01-28T02:05:51.500Z,16.30
2024-01-28T02:08:37.423Z,15.20
2024-01-28T02:11:24.243Z,16.30
2024-01-28T02:14:11.354Z,17.10
2024-01-28T02:16:59.710Z,16.40
2024-01-28T02:19:45.809Z,17.20
2024-01-28T02:22:31.737Z,16.50
2024-01-28T02:25:17.735Z,17.00
2024-01-28T02:28:03.871Z,16.00
2024-01-28T02:30:50.060Z,18.00
2024-01-28T02:33:36.343Z,16.20
2024-01-28T02:36:22.354Z,17.10
2024-01-28T02:39:08.696Z,17.20
2024-01-28T02:41:54.873Z,18.50
2024-01-28T02:44:41.360Z,17.80
2024-01-28T02:47:27.344Z,18.90
2024-01-28T02:50:13.725Z,18.30
2024-01-28T02:53:00.220Z,17.00
2024-01-28T02:55:46.134Z,18.60
2024-01-28T02:58:32.057Z,17.20
2024-01-28T03:01:18.254Z,16.80
2024-01-28T03:04:04.368Z,18.10
2024-01-28T03:06:50.437Z,17.10
2024-01-28T03:09:36.474Z,17.60
2024-01-28T03:12:22.714Z,16.80
2024-01-28T03:15:09.084Z,17.70
2024-01-28T03:17:55.361Z,18.60
2024-01-28T03:20:41.353Z,18.30
2024-01-28T03:23:27.333Z,18.10
2024-01-28T03:26:13.698Z,16.40
2024-01-28T03:28:59.961Z,18.80
2024-01-28T03:31:45.905Z,18.60
2024-01-28T03:34:32.003Z,17.20
2024-01-28T03:37:18.435Z,18.60
2024-01-28T03:40:05.026Z,17.50
2024-01-28T03:42:50.817Z,18.70
2024-01-28T03:45:37.092Z,18.20
2024-01-28T03:48:23.331Z,19.30
2024-01-28T03:51:09.542Z,18.10
2024-01-28T03:53:55.972Z,18.90
2024-01-28T03:56:42.010Z,17.40
2024-01-28T03:59:28.858Z,19.00
2024-01-28T04:02:19.309Z,17.30
2024-01-28T04:05:06.256Z,19.60
2024-01-28T04:07:52.683Z,21.80
2024-01-28T04:10:38.740Z,22.10
2024-01-28T04:13:24.787Z,20.10
2024-01-28T04:16:11.215Z,19.60
2024-01-28T04:18:58.088Z,19.40
2024-01-28T04:21:44.283Z,20.40
2024-01-28T04:24:30.779Z,19.90
2024-01-28T04:27:16.916Z,20.20
2024-01-28T04:30:03.491Z,19.20
2024-01-28T04:32:50.440Z,19.70
2024-01-28T04:35:36.506Z,18.50
2024-01-28T04:38:22.883Z,20.00
2024-01-28T04:41:09.266Z,19.90
2024-01-28T04:43:55.725Z,19.00
2024-01-28T04:46:41.590Z,19.40
2024-01-28T04:49:27.717Z,18.60
2024-01-28T04:52:14.443Z,20.80
2024-01-28T04:55:00.555Z,21.20
2024-01-28T04:57:46.468Z,17.10
2024-01-28T05:00:33.176Z,18.00
2024-01-28T05:03:19.331Z,18.90
2024-01-28T05:06:06.174Z,19.70
2024-01-28T05:08:52.200Z,19.50
2024-01-28T05:11:38.248Z,20.70
2024-01-28T05:14:24.129Z,19.70
2024-01-28T05:17:10.031Z,19.30
2024-01-28T05:19:55.912Z,19.40
2024-01-28T05:22:41.807Z,19.80
2024-01-28T05:25:28.059Z,18.50
2024-01-28T05:28:14.390Z,19.40
2024-01-28T05:31:00.608Z,19.00
2024-01-28T05:33:48.338Z,19.80
2024-01-28T05:36:34.604Z,20.60
2024-01-28T05:39:20.706Z,19.50
2024-01-28T05:42:06.506Z,20.80
2024-01-28T05:44:52.710Z,19.40
2024-01-28T05:47:38.877Z,20.60
2024-01-28T05:50:24.770Z,20.00
2024-01-28T05:53:10.908Z,18.60
2024-01-28T05:55:57.003Z,19.60
2024-01-28T05:58:42.912Z,19.80
2024-01-28T06:01:29.128Z,19.70
2024-01-28T06:04:15.032Z,22.00
2024-01-28T06:07:01.801Z,21.60
2024-01-28T06:09:47.960Z,21.30
2024-01-28T06:12:34.396Z,19.30
2024-01-28T06:15:20.500Z,21.40
2024-01-28T06:18:07.128Z,18.40
2024-01-28T06:20:53.081Z,19.40
2024-01-28T06:23:39.354Z,20.10
2024-01-28T06:26:25.457Z,20.10
2024-01-28T06:29:11.488Z,19.50
2024-01-28T06:31:57.525Z,19.50
2024-01-28T06:34:43.429Z,21.10
2024-01-28T06:37:30.051Z,19.90
2024-01-28T06:40:16.135Z,20.20
2024-01-28T06:43:02.059Z,20.60
2024-01-28T06:45:48.069Z,19.80
2024-01-28T06:48:34.574Z,19.20
2024-01-28T06:51:20.961Z,19.50
2024-01-28T06:54:06.901Z,20.40
2024-01-28T06:56:53.289Z,20.40
2024-01-28T06:59:39.206Z,20.40
2024-01-28T07:02:26.210Z,19.30
2024-01-28T07:05:13.002Z,22.20
2024-01-28T07:07:59.184Z,20.20
2024-01-28T07:10:44.993Z,19.60
2024-01-28T07:13:31.389Z,20.90
2024-01-28T07:16:17.574Z,19.10
2024-01-28T07:19:03.542Z,21.40
2024-01-28T07:21:52.084Z,20.00
2024-01-28T07:24:38.517Z,19.80
2024-01-28T07:27:24.784Z,18.40
2024-01-28T07:30:10.851Z,21.30
2024-01-28T07:32:57.166Z,19.10
2024-01-28T07:35:43.740Z,18.70
2024-01-28T07:38:30.016Z,20.30
2024-01-28T07:41:16.581Z,21.90
2024-01-28T07:44:03.726Z,21.70
2024-01-28T07:46:49.638Z,21.10
2024-01-28T07:49:36.692Z,20.50
2024-01-28T07:52:22.980Z,21.40
2024-01-28T07:55:09.023Z,21.30
2024-01-28T07:57:56.308Z,19.70
2024-01-28T08:00:42.535Z,21.60
2024-01-28T08:03:28.511Z,21.70
2024-01-28T08:06:14.998Z,20.00
2024-01-28T08:09:29.381Z,21.30
2024-01-28T08:12:29.203Z,21.20
2024-01-28T08:15:16.886Z,20.50
2024-01-28T08:18:03.006Z,22.10
2024-01-28T08:20:49.288Z,19.70
2024-01-28T08:23:35.409Z,21.20
2024-01-28T08:26:21.601Z,19.80
2024-01-28T08:29:07.697Z,19.40
2024-01-28T08:31:53.786Z,21.90
2024-01-28T08:34:40.218Z,20.30
2024-01-28T08:37:26.964Z,19.90
2024-01-28T08:40:13.074Z,18.70
2024-01-28T08:42:59.356Z,20.30
2024-01-28T08:45:45.422Z,17.50
2024-01-28T08:48:32.618Z,20.30
2024-01-28T08:51:18.956Z,20.00
2024-01-28T08:54:04.870Z,21.30
2024-01-28T08:56:51.473Z,20.70
2024-01-28T08:59:37.762Z,20.50
2024-01-28T09:02:23.685Z,19.50
2024-01-28T09:05:11.603Z,20.60
2024-01-28T09:07:58.013Z,17.40
2024-01-28T09:10:44.049Z,18.40
2024-01-28T09:13:30.093Z,19.60
2024-01-28T09:16:16.075Z,18.80
2024-01-28T09:19:05.496Z,18.80
2024-01-28T09:21:52.038Z,18.10
2024-01-28T09:24:39.880Z,16.30
2024-01-28T09:27:26.590Z,18.30
2024-01-28T09:30:12.886Z,18.00
2024-01-28T09:32:59.359Z,18.50
2024-01-28T09:35:48.009Z,16.80
2024-01-28T09:38:34.485Z,18.60
2024-01-28T09:41:29.886Z,20.30
2024-01-28T09:44:16.124Z,19.60
2024-01-28T09:47:03.138Z,19.30
2024-01-28T09:49:49.843Z,20.30
2024-01-28T09:52:36.331Z,18.30
2024-01-28T09:55:22.885Z,19.10
2024-01-28T09:58:11.926Z,18.80
2024-01-28T10:00:57.967Z,17.60
2024-01-28T10:03:44.534Z,18.30
2024-01-28T10:06:31.207Z,17.40
2024-01-28T10:09:17.532Z,16.70
2024-01-28T10:12:04.214Z,16.20
2024-01-28T10:14:53.750Z,16.50
2024-01-28T10:17:39.953Z,17.70
2024-01-28T10:20:29.584Z,18.80
2024-01-28T10:23:16.534Z,17.60
2024-01-28T10:26:02.643Z,16.10
2024-01-28T10:28:49.163Z,16.80
2024-01-28T10:31:35.373Z,15.20
2024-01-28T10:34:22.174Z,14.30
2024-01-28T10:37:13.175Z,14.80
2024-01-28T10:40:09.661Z,15.90
2024-01-28T10:42:57.799Z,15.30
2024-01-28T10:45:47.352Z,16.20
2024-01-28T10:48:35.169Z,15.40
2024-01-28T10:51:21.667Z,17.80
2024-01-28T10:54:09.705Z,16.50
2024-01-28T10:56:57.912Z,17.80
2024-01-28T10:59:44.290Z,18.00
2024-01-28T11:02:33.386Z,15.00
2024-01-28T11:05:20.225Z,16.50
2024-01-28T11:08:09.692Z,15.40
2024-01-28T11:10:55.856Z,14.60
2024-01-28T11:13:44.457Z,15.20
2024-01-28T11:16:31.296Z,14.10
2024-01-28T11:19:17.460Z,14.60
2024-01-28T11:22:04.384Z,15.60
2024-01-28T11:24:54.121Z,15.20
2024-01-28T11:27:41.298Z,15.80
2024-01-28T11:30:27.947Z,14.00
2024-01-28T11:33:17.041Z,15.60
2024-01-28T11:36:04.175Z,15.80
2024-01-28T11:38:57.512Z,15.10
2024-01-28T11:41:46.222Z,14.20
2024-01-28T11:44:40.756Z,14.10
2024-01-28T11:47:30.730Z,13.90
2024-01-28T11:50:17.570Z,13.70
2024-01-28T11:53:06.922Z,14.10
2024-01-28T11:55:53.313Z,13.50
2024-01-28T11:58:39.297Z,13.20
2024-01-28T12:01:25.876Z,13.20
2024-01-28T12:04:12.573Z,13.10
2024-01-28T12:06:58.902Z,15.90
2024-01-28T12:09:45.249Z,13.30
2024-01-28T12:12:36.525Z,14.30
2024-01-28T12:15:22.665Z,13.50
2024-01-28T12:18:11.419Z,14.40
2024-01-28T12:20:57.639Z,14.30
2024-01-28T12:23:52.191Z,13.50
2024-01-28T12:26:38.502Z,12.70
2024-01-28T12:29:24.485Z,11.60
2024-01-28T12:32:10.882Z,14.00
2024-01-28T12:34:58.439Z,13.80
2024-01-28T12:37:44.624Z,13.50
2024-01-28T12:40:34.252Z,13.40
2024-01-28T12:43:22.580Z,14.00
2024-01-28T12:46:09.531Z,13.30
2024-01-28T12:48:57.107Z,14.00
2024-01-28T12:51:44.848Z,13.60
2024-01-28T12:54:31.117Z,13.30
2024-01-28T12:57:18.466Z,15.00
2024-01-28T13:00:08.609Z,13.20
2024-01-28T13:02:55.054Z,13.80
2024-01-28T13:05:41.756Z,14.00
2024-01-28T13:08:29.220Z,13.60
2024-01-28T13:11:15.594Z,14.00
2024-01-28T13:14:04.004Z,13.60
2024-01-28T13:16:53.629Z,14.30
2024-01-28T13:19:39.795Z,13.00
2024-01-28T13:22:26.338Z,18.40
2024-01-28T13:25:13.675Z,20.40
2024-01-28T13:28:00.301Z,19.10
2024-01-28T13:30:46.430Z,17.00
2024-01-28T13:33:32.722Z,16.20
2024-01-28T13:36:19.104Z,14.90
2024-01-28T13:39:09.790Z,13.70
2024-01-28T13:41:56.593Z,22.20
2024-01-28T13:44:45.466Z,16.40
2024-01-28T13:47:31.736Z,15.40
2024-01-28T13:50:18.066Z,18.90
2024-01-28T13:53:09.254Z,15.80
2024-01-28T13:55:55.930Z,17.00
2024-01-28T13:58:42.063Z,16.00
2024-01-28T14:01:28.390Z,18.00
2024-01-28T14:04:16.997Z,16.50
2024-01-28T14:07:03.494Z,16.60
2024-01-28T14:09:50.237Z,16.40
2024-01-28T14:12:36.797Z,15.70
2024-01-28T14:15:23.277Z,12.80
2024-01-28T14:18:09.625Z,11.40
2024-01-28T14:20:56.187Z,13.80
2024-01-28T14:23:42.381Z,11.90
2024-01-28T14:26:28.778Z,14.40
2024-01-28T14:29:15.301Z,14.20
2024-01-28T14:32:01.460Z,14.70
2024-01-28T14:34:47.959Z,12.40
2024-01-28T14:37:34.629Z,13.80
2024-01-28T14:40:21.195Z,11.00
2024-01-28T14:43:07.514Z,12.50
2024-01-28T14:46:00.084Z,12.10
2024-01-28T14:48:46.994Z,12.70
2024-01-28T14:51:33.438Z,11.70
2024-01-28T14:54:20.788Z,11.60
2024-01-28T14:57:08.798Z,11.90
2024-01-28T14:59:56.300Z,11.40
2024-01-28T15:02:43.248Z,11.80
2024-01-28T15:05:29.300Z,10.70
2024-01-28T15:08:17.231Z,13.00
2024-01-28T15:11:05.035Z,12.30
2024-01-28T15:13:51.139Z,11.60
2024-01-28T15:16:41.308Z,10.60
2024-01-28T15:19:28.082Z,11.20
2024-01-28T15:22:14.037Z,11.20
2024-01-28T15:25:01.097Z,11.40
2024-01-28T15:27:48.269Z,11.10
2024-01-28T15:30:34.523Z,9.70
2024-01-28T15:33:20.811Z,11.10
2024-01-28T15:36:08.946Z,11.70
2024-01-28T15:38:55.385Z,11.90
2024-01-28T15:41:41.791Z,11.50
2024-01-28T15:44:28.783Z,11.90
2024-01-28T15:47:15.793Z,11.10
2024-01-28T15:50:02.594Z,10.90
2024-01-28T15:52:51.970Z,11.70
2024-01-28T15:55:37.928Z,14.60
2024-01-28T15:58:24.648Z,13.00
2024-01-28T16:01:11.172Z,13.00
2024-01-28T16:03:57.353Z,11.90
2024-01-28T16:06:44.210Z,9.10
2024-01-28T16:09:35.766Z,9.90
2024-01-28T16:12:28.889Z,8.20
2024-01-28T16:15:15.233Z,8.60
2024-01-28T16:18:02.061Z,10.40
2024-01-28T16:20:48.535Z,10.60
2024-01-28T16:23:34.845Z,10.00
2024-01-28T16:26:21.169Z,9.60
2024-01-28T16:29:07.545Z,9.50
2024-01-28T16:31:53.828Z,11.30
2024-01-28T16:34:40.438Z,9.40
2024-01-28T16:37:26.985Z,11.00
2024-01-28T16:40:15.078Z,9.40
2024-01-28T16:43:02.072Z,10.10
2024-01-28T16:45:48.241Z,10.90
2024-01-28T16:48:34.746Z,10.60
2024-01-28T16:51:21.024Z,9.70
2024-01-28T16:54:07.635Z,9.40
2024-01-28T16:56:53.764Z,9.90
2024-01-28T16:59:39.815Z,9.50
2024-01-28T17:02:26.339Z,8.80
2024-01-28T17:05:13.042Z,8.70
2024-01-28T17:07:59.458Z,8.00
2024-01-28T17:10:45.779Z,8.60
2024-01-28T17:13:34.800Z,8.70
2024-01-28T17:16:20.716Z,9.50
2024-01-28T17:19:06.869Z,9.90
2024-01-28T17:21:54.129Z,10.20
2024-01-28T17:24:40.553Z,9.10
2024-01-28T17:27:28.264Z,11.30
2024-01-28T17:30:16.151Z,9.90
2024-01-28T17:33:04.119Z,10.50
2024-01-28T17:35:50.360Z,9.90
2024-01-28T17:38:37.161Z,8.80
2024-01-28T17:41:23.389Z,8.70
2024-01-28T17:44:09.589Z,8.50
2024-01-28T17:46:55.784Z,7.10
2024-01-28T17:49:42.237Z,8.20
2024-01-28T17:52:28.597Z,9.60
2024-01-28T17:55:15.655Z,9.40
2024-01-28T17:58:01.873Z,10.30
2024-01-28T18:00:47.975Z,8.70
2024-01-28T18:03:35.620Z,9.40
2024-01-28T18:06:21.770Z,9.90
2024-01-28T18:09:10.117Z,10.00
2024-01-28T18:11:56.369Z,9.00
2024-01-28T18:14:43.012Z,10.80
2024-01-28T18:20:25.200Z,10.00
2024-01-28T18:23:11.611Z,9.50
2024-01-28T18:25:58.184Z,8.40
2024-01-28T18:28:44.375Z,9.20
2024-01-28T18:31:31.263Z,9.10
2024-01-28T18:34:18.045Z,8.60
2024-01-28T18:37:04.822Z,8.90
2024-01-28T18:39:51.276Z,9.40
2024-01-28T18:42:39.897Z,8.80
2024-01-28T18:45:26.539Z,8.20
2024-01-28T18:48:18.588Z,9.60
2024-01-28T18:51:07.525Z,8.90
2024-01-28T18:53:55.129Z,9.30
2024-01-28T18:56:41.765Z,9.40
2024-01-28T18:59:28.229Z,10.40
2024-01-28T19:02:16.937Z,8.90
2024-01-28T19:05:05.592Z,8.60
2024-01-28T19:07:54.220Z,9.20
2024-01-28T19:10:40.523Z,9.50
2024-01-28T19:13:27.132Z,8.80
2024-01-28T19:16:13.865Z,9.10
2024-01-28T19:19:00.353Z,9.10
2024-01-28T19:21:47.153Z,9.70
2024-01-28T19:24:33.742Z,9.90
2024-01-28T19:27:19.824Z,9.20
2024-01-28T19:30:06.604Z,8.60
2024-01-28T19:32:53.934Z,8.40
2024-01-28T19:35:44.743Z,9.80
2024-01-28T19:38:31.188Z,10.20
2024-01-28T19:41:17.741Z,11.70
2024-01-28T19:44:05.033Z,11.30
2024-01-28T19:46:51.135Z,12.90
2024-01-28T19:49:37.571Z,12.30
2024-01-28T19:52:24.141Z,9.80
2024-01-28T19:55:10.501Z,9.40
2024-01-28T19:57:57.022Z,9.80
2024-01-28T20:00:44.105Z,10.90
2024-01-28T20:03:31.063Z,11.70
2024-01-28T20:06:27.484Z,16.40
2024-01-28T20:09:19.277Z,14.30
2024-01-28T20:12:06.476Z,13.00
2024-01-28T20:14:53.119Z,12.40
2024-01-28T20:17:39.722Z,14.60
2024-01-28T20:20:26.043Z,13.90
2024-01-28T20:23:15.016Z,15.20
2024-01-28T20:26:01.758Z,15.10
2024-01-28T20:28:48.671Z,14.10
2024-01-28T20:31:34.920Z,12.70
2024-01-28T20:34:21.937Z,12.00
2024-01-28T20:37:08.049Z,12.90
2024-01-28T20:39:54.316Z,12.30
2024-01-28T20:42:51.543Z,15.70
2024-01-28T20:45:37.850Z,17.40
2024-01-28T20:51:11.070Z,12.50
2024-01-28T20:53:57.372Z,13.10
2024-01-28T20:56:43.886Z,13.80
2024-01-28T20:59:30.254Z,13.00
2024-01-28T21:02:17.852Z,14.20
2024-01-28T21:05:05.612Z,12.80
2024-01-28T21:07:51.985Z,13.40
2024-01-28T21:10:39.636Z,14.80
2024-01-28T21:13:26.097Z,15.20
2024-01-28T21:16:12.136Z,14.00
2024-01-28T21:18:58.660Z,12.50
2024-01-28T21:21:45.330Z,12.70
2024-01-28T21:24:32.197Z,12.30
2024-01-28T21:27:18.760Z,11.70
2024-01-28T21:30:06.125Z,12.60
2024-01-28T21:32:52.575Z,14.60
2024-01-28T21:35:39.821Z,13.20
2024-01-28T21:38:26.437Z,13.90
2024-01-28T21:41:12.535Z,11.70
2024-01-28T21:43:58.840Z,11.60
2024-01-28T21:46:45.232Z,11.20
2024-01-28T21:49:31.897Z,11.60
2024-01-28T21:52:18.752Z,10.70
2024-01-28T21:55:08.594Z,12.50
2024-01-28T21:57:54.800Z,13.20
2024-01-28T22:00:41.569Z,12.00
2024-01-28T22:03:28.427Z,11.80
2024-01-28T22:06:15.071Z,12.50
2024-01-28T22:09:01.329Z,14.10
2024-01-28T22:11:48.870Z,12.80
2024-01-28T22:14:36.574Z,13.00
2024-01-28T22:17:23.308Z,12.90
2024-01-28T22:20:10.212Z,12.60
2024-01-28T22:22:57.117Z,12.10
2024-01-28T22:25:44.717Z,12.40
2024-01-28T22:28:31.996Z,11.60
2024-01-28T22:31:18.155Z,11.80
2024-01-28T22:34:04.947Z,11.70
2024-01-28T22:36:51.116Z,12.30
2024-01-28T22:39:37.713Z,10.60
2024-01-28T22:42:24.192Z,10.60
2024-01-28T22:45:11.636Z,12.70
2024-01-28T22:47:57.911Z,11.60
2024-01-28T22:50:44.566Z,11.90
2024-01-28T22:53:31.804Z,12.70
2024-01-28T22:56:18.451Z,12.70
2024-01-28T22:59:06.381Z,11.30
2024-01-28T23:01:53.060Z,10.90
2024-01-28T23:04:39.427Z,12.00
2024-01-28T23:07:25.868Z,13.10
2024-01-28T23:10:13.952Z,11.40
2024-01-28T23:13:05.777Z,10.80
2024-01-28T23:22:08.885Z,9.80
2024-01-28T23:24:55.904Z,10.90
2024-01-28T23:27:42.751Z,8.60
2024-01-28T23:30:29.378Z,9.50
2024-01-28T23:33:16.037Z,8.30
2024-01-28T23:36:03.299Z,9.80
2024-01-28T23:38:49.675Z,9.40
2024-01-28T23:41:41.022Z,9.40
2024-01-28T23:44:27.771Z,10.10
2024-01-28T23:47:14.197Z,10.50
2024-01-28T23:50:01.019Z,9.70
2024-01-28T23:52:47.942Z,9.50
2024-01-28T23:55:34.112Z,8.50
2024-01-28T23:58:21.194Z,10.70
